sensor_id;sensor_type;location;lat;lon;timestamp;pressure;altitude;pressure_sealevel;temperature;humidity
17260;BME280;8746;49.230;9.220;2022-08-04T00:01:44;99683.34;;;21.50;63.62
17260;BME280;8746;49.230;9.220;2022-08-04T00:07:06;99685.72;;;21.43;63.75
17260;BME280;8746;49.230;9.220;2022-08-04T00:09:45;99689.53;;;21.40;63.95
17260;BME280;8746;49.230;9.220;2022-08-04T00:12:13;99680.63;;;21.40;63.34
17260;BME280;8746;49.230;9.220;2022-08-04T00:14:46;99692.66;;;21.55;63.34
17260;BME280;8746;49.230;9.220;2022-08-04T00:17:13;99685.88;;;21.51;62.18
17260;BME280;8746;49.230;9.220;2022-08-04T00:19:40;99686.06;;;21.59;60.60
17260;BME280;8746;49.230;9.220;2022-08-04T00:22:10;99684.06;;;21.61;59.96
17260;BME280;8746;49.230;9.220;2022-08-04T00:24:36;99680.13;;;21.66;59.01
17260;BME280;8746;49.230;9.220;2022-08-04T00:27:02;99687.03;;;21.58;59.41
17260;BME280;8746;49.230;9.220;2022-08-04T00:29:28;99674.47;;;21.59;59.87
17260;BME280;8746;49.230;9.220;2022-08-04T00:31:55;99679.81;;;21.59;59.77
17260;BME280;8746;49.230;9.220;2022-08-04T00:34:26;99678.94;;;21.39;62.64
17260;BME280;8746;49.230;9.220;2022-08-04T00:36:53;99678.22;;;21.37;61.31
17260;BME280;8746;49.230;9.220;2022-08-04T00:39:20;99681.91;;;21.55;59.22
17260;BME280;8746;49.230;9.220;2022-08-04T00:47:43;99676.47;;;21.16;63.17
17260;BME280;8746;49.230;9.220;2022-08-04T00:58:22;99678.50;;;20.93;64.12
17260;BME280;8746;49.230;9.220;2022-08-04T01:01:05;99678.03;;;20.78;64.70
17260;BME280;8746;49.230;9.220;2022-08-04T01:04:01;99681.25;;;20.72;64.93
17260;BME280;8746;49.230;9.220;2022-08-04T01:06:54;99674.63;;;20.76;65.30
17260;BME280;8746;49.230;9.220;2022-08-04T01:10:02;99676.91;;;20.59;65.88
17260;BME280;8746;49.230;9.220;2022-08-04T01:12:42;99683.13;;;20.60;66.05
17260;BME280;8746;49.230;9.220;2022-08-04T01:15:16;99677.50;;;20.63;64.58
17260;BME280;8746;49.230;9.220;2022-08-04T01:17:56;99678.34;;;20.63;64.17
17260;BME280;8746;49.230;9.220;2022-08-04T01:20:24;99684.22;;;20.57;64.81
17260;BME280;8746;49.230;9.220;2022-08-04T01:29:10;99678.03;;;20.36;65.95
17260;BME280;8746;49.230;9.220;2022-08-04T01:32:05;99679.59;;;20.38;65.51
17260;BME280;8746;49.230;9.220;2022-08-04T01:34:42;99675.25;;;20.37;66.11
17260;BME280;8746;49.230;9.220;2022-08-04T01:37:47;99679.16;;;20.12;67.22
17260;BME280;8746;49.230;9.220;2022-08-04T01:40:14;99685.63;;;20.09;65.54
17260;BME280;8746;49.230;9.220;2022-08-04T01:42:41;99686.00;;;20.05;66.01
17260;BME280;8746;49.230;9.220;2022-08-04T01:45:11;99679.31;;;19.99;66.55
17260;BME280;8746;49.230;9.220;2022-08-04T01:47:42;99683.84;;;19.98;65.94
17260;BME280;8746;49.230;9.220;2022-08-04T01:50:12;99681.63;;;20.04;67.37
17260;BME280;8746;49.230;9.220;2022-08-04T01:52:39;99686.00;;;20.26;66.70
17260;BME280;8746;49.230;9.220;2022-08-04T01:55:07;99686.53;;;20.20;67.25
17260;BME280;8746;49.230;9.220;2022-08-04T01:57:40;99690.59;;;20.35;67.97
17260;BME280;8746;49.230;9.220;2022-08-04T02:00:07;99685.47;;;20.11;68.26
17260;BME280;8746;49.230;9.220;2022-08-04T02:02:33;99680.19;;;19.99;69.21
17260;BME280;8746;49.230;9.220;2022-08-04T02:04:58;99678.72;;;19.95;69.22
17260;BME280;8746;49.230;9.220;2022-08-04T02:08:01;99683.75;;;19.89;69.28
17260;BME280;8746;49.230;9.220;2022-08-04T02:10:28;99672.22;;;19.88;69.71
17260;BME280;8746;49.230;9.220;2022-08-04T02:13:04;99680.44;;;19.96;69.80
17260;BME280;8746;49.230;9.220;2022-08-04T02:18:28;99675.47;;;19.80;69.72
17260;BME280;8746;49.230;9.220;2022-08-04T02:20:57;99669.06;;;19.72;69.08
17260;BME280;8746;49.230;9.220;2022-08-04T02:26:05;99671.97;;;19.80;68.81
17260;BME280;8746;49.230;9.220;2022-08-04T02:28:50;99668.69;;;19.76;68.67
17260;BME280;8746;49.230;9.220;2022-08-04T02:31:42;99672.94;;;19.79;68.04
17260;BME280;8746;49.230;9.220;2022-08-04T02:34:24;99671.16;;;19.68;68.78
17260;BME280;8746;49.230;9.220;2022-08-04T02:36:53;99664.69;;;19.70;69.26
17260;BME280;8746;49.230;9.220;2022-08-04T02:39:20;99658.16;;;19.63;69.80
17260;BME280;8746;49.230;9.220;2022-08-04T02:41:47;99668.53;;;19.57;69.49
17260;BME280;8746;49.230;9.220;2022-08-04T02:44:19;99659.78;;;19.54;68.56
17260;BME280;8746;49.230;9.220;2022-08-04T02:46:45;99664.28;;;19.54;68.37
17260;BME280;8746;49.230;9.220;2022-08-04T02:49:13;99659.53;;;19.58;69.01
17260;BME280;8746;49.230;9.220;2022-08-04T02:51:42;99668.75;;;19.21;71.38
17260;BME280;8746;49.230;9.220;2022-08-04T02:54:09;99664.31;;;19.31;71.42
17260;BME280;8746;49.230;9.220;2022-08-04T02:56:37;99675.78;;;19.22;71.52
17260;BME280;8746;49.230;9.220;2022-08-04T02:59:08;99671.03;;;19.26;70.18
17260;BME280;8746;49.230;9.220;2022-08-04T03:01:34;99675.38;;;19.38;67.63
17260;BME280;8746;49.230;9.220;2022-08-04T03:10:04;99665.28;;;19.42;65.31
17260;BME280;8746;49.230;9.220;2022-08-04T03:13:04;99665.75;;;19.47;64.64
17260;BME280;8746;49.230;9.220;2022-08-04T03:30:12;99666.19;;;19.08;69.21
17260;BME280;8746;49.230;9.220;2022-08-04T03:32:56;99664.63;;;19.05;69.69
17260;BME280;8746;49.230;9.220;2022-08-04T03:36:06;99673.75;;;18.92;70.44
17260;BME280;8746;49.230;9.220;2022-08-04T03:44:33;99664.88;;;19.02;70.29
17260;BME280;8746;49.230;9.220;2022-08-04T03:47:09;99671.41;;;18.98;70.64
17260;BME280;8746;49.230;9.220;2022-08-04T03:52:43;99662.94;;;18.93;69.50
17260;BME280;8746;49.230;9.220;2022-08-04T04:12:58;99668.75;;;18.76;71.84
17260;BME280;8746;49.230;9.220;2022-08-04T04:20:52;99667.38;;;18.70;72.21
17260;BME280;8746;49.230;9.220;2022-08-04T04:38:02;99667.25;;;18.71;71.57
17260;BME280;8746;49.230;9.220;2022-08-04T04:40:41;99667.25;;;18.71;72.13
17260;BME280;8746;49.230;9.220;2022-08-04T04:43:26;99673.09;;;18.88;71.54
17260;BME280;8746;49.230;9.220;2022-08-04T04:48:49;99679.28;;;18.88;71.59
17260;BME280;8746;49.230;9.220;2022-08-04T04:51:47;99673.59;;;19.04;70.86
17260;BME280;8746;49.230;9.220;2022-08-04T04:54:50;99676.66;;;19.11;70.00
17260;BME280;8746;49.230;9.220;2022-08-04T04:57:19;99677.38;;;19.25;69.31
17260;BME280;8746;49.230;9.220;2022-08-04T04:59:55;99683.78;;;19.33;68.06
17260;BME280;8746;49.230;9.220;2022-08-04T05:13:35;99676.78;;;19.97;62.79
17260;BME280;8746;49.230;9.220;2022-08-04T05:16:09;99669.72;;;19.96;62.73
17260;BME280;8746;49.230;9.220;2022-08-04T05:18:41;99677.44;;;20.11;62.90
17260;BME280;8746;49.230;9.220;2022-08-04T05:21:27;99676.22;;;20.15;65.33
17260;BME280;8746;49.230;9.220;2022-08-04T05:24:02;99683.22;;;20.27;65.71
17260;BME280;8746;49.230;9.220;2022-08-04T05:26:32;99681.88;;;20.43;65.16
17260;BME280;8746;49.230;9.220;2022-08-04T05:29:05;99681.72;;;20.34;65.27
17260;BME280;8746;49.230;9.220;2022-08-04T05:31:35;99677.25;;;20.45;64.94
17260;BME280;8746;49.230;9.220;2022-08-04T05:34:07;99681.16;;;20.62;64.99
17260;BME280;8746;49.230;9.220;2022-08-04T05:36:38;99678.56;;;20.72;64.52
17260;BME280;8746;49.230;9.220;2022-08-04T05:39:08;99675.59;;;20.75;63.72
17260;BME280;8746;49.230;9.220;2022-08-04T05:41:35;99677.66;;;20.92;62.77
17260;BME280;8746;49.230;9.220;2022-08-04T05:44:02;99676.41;;;20.96;62.28
17260;BME280;8746;49.230;9.220;2022-08-04T05:46:28;99671.81;;;21.18;61.16
17260;BME280;8746;49.230;9.220;2022-08-04T05:48:55;99670.56;;;21.32;59.40
17260;BME280;8746;49.230;9.220;2022-08-04T05:51:20;99665.09;;;21.43;57.82
17260;BME280;8746;49.230;9.220;2022-08-04T05:53:48;99667.28;;;21.59;58.19
17260;BME280;8746;49.230;9.220;2022-08-04T05:56:15;99671.94;;;21.67;58.02
17260;BME280;8746;49.230;9.220;2022-08-04T05:58:41;99671.94;;;21.77;56.32
17260;BME280;8746;49.230;9.220;2022-08-04T06:01:09;99674.91;;;21.84;56.32
17260;BME280;8746;49.230;9.220;2022-08-04T06:03:36;99672.34;;;22.02;56.46
17260;BME280;8746;49.230;9.220;2022-08-04T06:06:03;99676.00;;;22.10;57.07
17260;BME280;8746;49.230;9.220;2022-08-04T06:08:29;99671.34;;;22.22;56.05
17260;BME280;8746;49.230;9.220;2022-08-04T06:10:56;99675.56;;;22.35;54.46
17260;BME280;8746;49.230;9.220;2022-08-04T06:13:28;99680.69;;;22.38;54.16
17260;BME280;8746;49.230;9.220;2022-08-04T06:15:56;99671.75;;;22.47;53.61
17260;BME280;8746;49.230;9.220;2022-08-04T06:18:23;99677.56;;;22.52;53.79
17260;BME280;8746;49.230;9.220;2022-08-04T06:20:53;99675.66;;;22.63;53.51
17260;BME280;8746;49.230;9.220;2022-08-04T06:23:21;99675.47;;;22.74;53.45
17260;BME280;8746;49.230;9.220;2022-08-04T06:25:54;99675.16;;;22.87;52.95
17260;BME280;8746;49.230;9.220;2022-08-04T06:28:21;99677.41;;;22.92;52.88
17260;BME280;8746;49.230;9.220;2022-08-04T06:30:48;99676.81;;;22.98;52.50
17260;BME280;8746;49.230;9.220;2022-08-04T06:33:15;99677.44;;;23.19;52.01
17260;BME280;8746;49.230;9.220;2022-08-04T06:35:53;99676.75;;;23.17;52.06
17260;BME280;8746;49.230;9.220;2022-08-04T06:38:21;99676.16;;;23.24;51.85
17260;BME280;8746;49.230;9.220;2022-08-04T06:40:47;99682.78;;;23.47;51.58
17260;BME280;8746;49.230;9.220;2022-08-04T06:43:13;99673.50;;;23.60;51.19
17260;BME280;8746;49.230;9.220;2022-08-04T06:45:38;99674.34;;;23.60;50.75
17260;BME280;8746;49.230;9.220;2022-08-04T06:48:05;99672.66;;;23.77;50.47
17260;BME280;8746;49.230;9.220;2022-08-04T06:50:33;99675.53;;;23.94;49.81
17260;BME280;8746;49.230;9.220;2022-08-04T06:52:59;99674.69;;;24.11;50.60
17260;BME280;8746;49.230;9.220;2022-08-04T06:55:24;99677.88;;;24.15;50.29
17260;BME280;8746;49.230;9.220;2022-08-04T06:57:51;99669.09;;;24.31;49.72
17260;BME280;8746;49.230;9.220;2022-08-04T07:00:18;99681.63;;;24.40;49.45
17260;BME280;8746;49.230;9.220;2022-08-04T07:02:46;99678.56;;;24.35;48.52
17260;BME280;8746;49.230;9.220;2022-08-04T07:05:13;99673.16;;;24.61;48.11
17260;BME280;8746;49.230;9.220;2022-08-04T07:07:39;99676.47;;;24.73;47.51
17260;BME280;8746;49.230;9.220;2022-08-04T07:10:06;99674.13;;;24.78;47.82
17260;BME280;8746;49.230;9.220;2022-08-04T07:12:33;99681.56;;;24.85;47.01
17260;BME280;8746;49.230;9.220;2022-08-04T07:14:59;99677.97;;;25.02;46.97
17260;BME280;8746;49.230;9.220;2022-08-04T07:17:27;99675.91;;;25.04;46.47
17260;BME280;8746;49.230;9.220;2022-08-04T07:19:53;99676.00;;;25.21;46.36
17260;BME280;8746;49.230;9.220;2022-08-04T07:22:19;99666.75;;;25.32;46.19
17260;BME280;8746;49.230;9.220;2022-08-04T07:24:44;99667.19;;;25.53;45.74
17260;BME280;8746;49.230;9.220;2022-08-04T07:27:10;99665.13;;;25.47;45.53
17260;BME280;8746;49.230;9.220;2022-08-04T07:29:36;99670.56;;;25.64;45.23
17260;BME280;8746;49.230;9.220;2022-08-04T07:32:03;99666.72;;;25.83;44.91
17260;BME280;8746;49.230;9.220;2022-08-04T07:34:30;99663.50;;;25.87;43.66
17260;BME280;8746;49.230;9.220;2022-08-04T07:36:58;99666.38;;;26.02;43.19
17260;BME280;8746;49.230;9.220;2022-08-04T07:39:26;99663.00;;;26.25;42.63
17260;BME280;8746;49.230;9.220;2022-08-04T07:41:53;99662.31;;;26.31;42.81
17260;BME280;8746;49.230;9.220;2022-08-04T07:44:19;99666.72;;;26.40;42.05
17260;BME280;8746;49.230;9.220;2022-08-04T07:46:45;99662.47;;;26.46;41.73
17260;BME280;8746;49.230;9.220;2022-08-04T07:49:11;99666.00;;;26.55;41.88
17260;BME280;8746;49.230;9.220;2022-08-04T07:51:37;99662.41;;;26.79;42.49
17260;BME280;8746;49.230;9.220;2022-08-04T07:54:04;99668.44;;;26.98;41.62
17260;BME280;8746;49.230;9.220;2022-08-04T07:56:32;99660.59;;;27.11;41.86
17260;BME280;8746;49.230;9.220;2022-08-04T07:59:00;99661.38;;;27.28;41.50
17260;BME280;8746;49.230;9.220;2022-08-04T08:01:25;99659.97;;;27.41;40.73
17260;BME280;8746;49.230;9.220;2022-08-04T08:03:52;99656.56;;;27.47;40.70
17260;BME280;8746;49.230;9.220;2022-08-04T08:06:19;99653.84;;;27.47;40.98
17260;BME280;8746;49.230;9.220;2022-08-04T08:08:45;99659.91;;;27.49;40.68
17260;BME280;8746;49.230;9.220;2022-08-04T08:11:10;99649.81;;;27.66;40.17
17260;BME280;8746;49.230;9.220;2022-08-04T08:13:36;99655.34;;;27.73;39.78
17260;BME280;8746;49.230;9.220;2022-08-04T08:16:03;99653.22;;;27.83;39.44
17260;BME280;8746;49.230;9.220;2022-08-04T08:18:29;99651.03;;;28.02;39.31
17260;BME280;8746;49.230;9.220;2022-08-04T08:20:56;99648.69;;;28.07;38.71
17260;BME280;8746;49.230;9.220;2022-08-04T08:23:21;99649.53;;;28.22;38.43
17260;BME280;8746;49.230;9.220;2022-08-04T08:25:47;99641.50;;;28.14;37.94
17260;BME280;8746;49.230;9.220;2022-08-04T08:28:13;99648.78;;;28.28;37.46
17260;BME280;8746;49.230;9.220;2022-08-04T08:30:40;99647.03;;;28.36;37.90
17260;BME280;8746;49.230;9.220;2022-08-04T08:33:07;99646.28;;;28.42;37.66
17260;BME280;8746;49.230;9.220;2022-08-04T08:35:52;99639.56;;;28.53;37.69
17260;BME280;8746;49.230;9.220;2022-08-04T08:38:43;99637.59;;;28.61;37.63
17260;BME280;8746;49.230;9.220;2022-08-04T08:41:50;99641.19;;;28.77;37.09
17260;BME280;8746;49.230;9.220;2022-08-04T08:44:21;99636.38;;;29.09;36.14
17260;BME280;8746;49.230;9.220;2022-08-04T08:50:02;99644.31;;;29.25;35.06
17260;BME280;8746;49.230;9.220;2022-08-04T08:55:21;99636.72;;;29.21;35.17
17260;BME280;8746;49.230;9.220;2022-08-04T08:58:08;99639.88;;;29.39;34.80
17260;BME280;8746;49.230;9.220;2022-08-04T09:00:57;99641.28;;;29.72;34.03
17260;BME280;8746;49.230;9.220;2022-08-04T09:12:48;99637.16;;;30.54;32.71
17260;BME280;8746;49.230;9.220;2022-08-04T09:15:21;99633.56;;;30.89;31.96
17260;BME280;8746;49.230;9.220;2022-08-04T09:17:56;99630.34;;;30.72;31.87
17260;BME280;8746;49.230;9.220;2022-08-04T09:25:40;99629.97;;;31.30;31.10
17260;BME280;8746;49.230;9.220;2022-08-04T09:28:13;99629.63;;;31.60;30.61
17260;BME280;8746;49.230;9.220;2022-08-04T09:31:08;99638.91;;;31.93;30.79
17260;BME280;8746;49.230;9.220;2022-08-04T09:38:48;99629.88;;;31.99;29.28
17260;BME280;8746;49.230;9.220;2022-08-04T09:44:17;99626.94;;;32.41;29.01
17260;BME280;8746;49.230;9.220;2022-08-04T09:49:40;99628.72;;;32.74;28.42
17260;BME280;8746;49.230;9.220;2022-08-04T09:55:11;99625.13;;;32.93;28.24
17260;BME280;8746;49.230;9.220;2022-08-04T09:57:54;99622.13;;;33.08;27.42
17260;BME280;8746;49.230;9.220;2022-08-04T10:00:26;99623.81;;;33.10;27.98
17260;BME280;8746;49.230;9.220;2022-08-04T10:02:57;99625.50;;;33.49;26.96
17260;BME280;8746;49.230;9.220;2022-08-04T10:05:34;99625.56;;;33.43;26.26
17260;BME280;8746;49.230;9.220;2022-08-04T10:10:58;99611.56;;;34.15;26.67
17260;BME280;8746;49.230;9.220;2022-08-04T10:24:38;99605.94;;;35.21;24.22
17260;BME280;8746;49.230;9.220;2022-08-04T10:27:15;99600.03;;;35.36;23.91
17260;BME280;8746;49.230;9.220;2022-08-04T10:29:45;99603.31;;;35.45;23.95
17260;BME280;8746;49.230;9.220;2022-08-04T10:35:25;99590.47;;;35.81;23.95
17260;BME280;8746;49.230;9.220;2022-08-04T10:40:49;99593.53;;;36.39;23.41
17260;BME280;8746;49.230;9.220;2022-08-04T10:43:45;99590.03;;;36.55;23.15
17260;BME280;8746;49.230;9.220;2022-08-04T10:46:19;99591.31;;;36.65;22.66
17260;BME280;8746;49.230;9.220;2022-08-04T10:49:35;99583.38;;;36.92;24.09
17260;BME280;8746;49.230;9.220;2022-08-04T11:00:13;99574.94;;;36.70;22.80
17260;BME280;8746;49.230;9.220;2022-08-04T11:07:59;99579.91;;;37.26;20.64
17260;BME280;8746;49.230;9.220;2022-08-04T11:10:27;99579.66;;;36.98;21.07
17260;BME280;8746;49.230;9.220;2022-08-04T11:12:56;99576.56;;;36.95;21.68
17260;BME280;8746;49.230;9.220;2022-08-04T11:15:30;99583.00;;;37.29;21.40
17260;BME280;8746;49.230;9.220;2022-08-04T11:18:04;99583.34;;;37.33;21.11
17260;BME280;8746;49.230;9.220;2022-08-04T11:20:41;99578.97;;;37.66;20.94
17260;BME280;8746;49.230;9.220;2022-08-04T11:23:09;99569.78;;;37.60;21.41
17260;BME280;8746;49.230;9.220;2022-08-04T11:25:46;99580.91;;;37.82;20.97
17260;BME280;8746;49.230;9.220;2022-08-04T11:31:11;99574.19;;;38.12;20.32
17260;BME280;8746;49.230;9.220;2022-08-04T11:36:33;99574.31;;;38.62;20.08
17260;BME280;8746;49.230;9.220;2022-08-04T11:39:27;99572.06;;;38.37;19.73
17260;BME280;8746;49.230;9.220;2022-08-04T11:42:04;99570.59;;;38.51;19.24
17260;BME280;8746;49.230;9.220;2022-08-04T11:44:35;99568.09;;;38.94;19.58
17260;BME280;8746;49.230;9.220;2022-08-04T11:47:08;99576.31;;;39.16;19.65
17260;BME280;8746;49.230;9.220;2022-08-04T11:49:48;99571.53;;;39.06;19.48
17260;BME280;8746;49.230;9.220;2022-08-04T11:52:18;99569.16;;;38.88;19.94
17260;BME280;8746;49.230;9.220;2022-08-04T11:54:45;99577.59;;;39.31;19.84
17260;BME280;8746;49.230;9.220;2022-08-04T11:57:11;99569.03;;;38.77;20.09
17260;BME280;8746;49.230;9.220;2022-08-04T11:59:38;99574.31;;;39.06;18.56
17260;BME280;8746;49.230;9.220;2022-08-04T12:04:46;99567.06;;;39.00;18.57
17260;BME280;8746;49.230;9.220;2022-08-04T12:10:11;99566.88;;;39.34;18.69
17260;BME280;8746;49.230;9.220;2022-08-04T12:12:44;99557.81;;;39.71;18.56
17260;BME280;8746;49.230;9.220;2022-08-04T12:20:33;99550.69;;;39.75;18.47
17260;BME280;8746;49.230;9.220;2022-08-04T12:23:05;99556.38;;;40.01;18.02
17260;BME280;8746;49.230;9.220;2022-08-04T12:25:39;99549.03;;;40.12;17.72
17260;BME280;8746;49.230;9.220;2022-08-04T12:28:21;99548.84;;;40.29;17.90
17260;BME280;8746;49.230;9.220;2022-08-04T12:30:53;99552.53;;;41.55;16.49
17260;BME280;8746;49.230;9.220;2022-08-04T12:33:25;99548.19;;;40.70;17.40
17260;BME280;8746;49.230;9.220;2022-08-04T12:36:03;99552.91;;;40.69;17.20
17260;BME280;8746;49.230;9.220;2022-08-04T12:38:40;99544.72;;;41.99;16.28
17260;BME280;8746;49.230;9.220;2022-08-04T12:41:10;99545.28;;;41.64;16.51
17260;BME280;8746;49.230;9.220;2022-08-04T12:43:40;99537.78;;;41.86;15.87
17260;BME280;8746;49.230;9.220;2022-08-04T12:46:08;99540.31;;;41.67;16.05
17260;BME280;8746;49.230;9.220;2022-08-04T12:48:36;99541.13;;;41.93;16.05
17260;BME280;8746;49.230;9.220;2022-08-04T12:51:04;99537.44;;;42.23;15.89
17260;BME280;8746;49.230;9.220;2022-08-04T12:53:35;99540.31;;;42.73;15.53
17260;BME280;8746;49.230;9.220;2022-08-04T12:56:02;99536.50;;;42.54;15.42
17260;BME280;8746;49.230;9.220;2022-08-04T12:58:32;99546.75;;;42.58;15.69
17260;BME280;8746;49.230;9.220;2022-08-04T13:01:10;99545.47;;;43.35;14.67
17260;BME280;8746;49.230;9.220;2022-08-04T13:03:42;99543.09;;;42.73;15.32
17260;BME280;8746;49.230;9.220;2022-08-04T13:06:10;99532.06;;;42.53;15.22
17260;BME280;8746;49.230;9.220;2022-08-04T13:08:39;99535.63;;;42.64;15.54
17260;BME280;8746;49.230;9.220;2022-08-04T13:11:06;99532.00;;;41.30;16.19
17260;BME280;8746;49.230;9.220;2022-08-04T13:13:35;99534.94;;;42.92;15.81
17260;BME280;8746;49.230;9.220;2022-08-04T13:16:06;99529.34;;;43.72;14.60
17260;BME280;8746;49.230;9.220;2022-08-04T13:18:44;99524.00;;;44.73;14.48
17260;BME280;8746;49.230;9.220;2022-08-04T13:21:18;99519.34;;;44.68;13.56
17260;BME280;8746;49.230;9.220;2022-08-04T13:23:46;99508.16;;;45.91;12.92
17260;BME280;8746;49.230;9.220;2022-08-04T13:26:14;99509.16;;;42.87;15.28
17260;BME280;8746;49.230;9.220;2022-08-04T13:28:43;99506.25;;;43.42;14.82
17260;BME280;8746;49.230;9.220;2022-08-04T13:31:13;99495.81;;;43.87;14.42
17260;BME280;8746;49.230;9.220;2022-08-04T13:33:41;99494.91;;;44.22;14.26
17260;BME280;8746;49.230;9.220;2022-08-04T13:36:08;99499.47;;;45.79;13.12
17260;BME280;8746;49.230;9.220;2022-08-04T13:38:43;99494.66;;;44.42;13.87
17260;BME280;8746;49.230;9.220;2022-08-04T13:41:10;99500.97;;;43.75;14.10
17260;BME280;8746;49.230;9.220;2022-08-04T13:43:42;99501.38;;;45.18;13.53
17260;BME280;8746;49.230;9.220;2022-08-04T13:46:08;99493.78;;;44.66;13.71
17260;BME280;8746;49.230;9.220;2022-08-04T13:48:39;99494.69;;;45.00;13.10
17260;BME280;8746;49.230;9.220;2022-08-04T13:51:06;99487.31;;;46.03;12.60
17260;BME280;8746;49.230;9.220;2022-08-04T13:53:35;99488.88;;;46.74;12.50
17260;BME280;8746;49.230;9.220;2022-08-04T13:56:03;99486.63;;;45.97;12.58
17260;BME280;8746;49.230;9.220;2022-08-04T13:58:31;99484.53;;;43.49;13.97
17260;BME280;8746;49.230;9.220;2022-08-04T14:01:01;99479.63;;;42.62;15.07
17260;BME280;8746;49.230;9.220;2022-08-04T14:04:28;99484.38;;;44.62;13.63
17260;BME280;8746;49.230;9.220;2022-08-04T14:06:44;99481.09;;;44.98;13.37
17260;BME280;8746;49.230;9.220;2022-08-04T14:09:18;99472.88;;;45.54;13.41
17260;BME280;8746;49.230;9.220;2022-08-04T14:11:46;99477.56;;;47.15;12.05
17260;BME280;8746;49.230;9.220;2022-08-04T14:14:24;99476.22;;;47.35;11.47
17260;BME280;8746;49.230;9.220;2022-08-04T14:19:48;99465.53;;;46.69;11.50
17260;BME280;8746;49.230;9.220;2022-08-04T14:27:20;99457.31;;;45.39;12.79
17260;BME280;8746;49.230;9.220;2022-08-04T14:29:45;99462.22;;;46.67;11.73
17260;BME280;8746;49.230;9.220;2022-08-04T14:32:11;99454.19;;;46.52;11.87
17260;BME280;8746;49.230;9.220;2022-08-04T14:34:38;99446.81;;;46.33;11.98
17260;BME280;8746;49.230;9.220;2022-08-04T14:37:08;99448.94;;;46.87;11.71
17260;BME280;8746;49.230;9.220;2022-08-04T14:39:42;99451.03;;;47.27;11.47
17260;BME280;8746;49.230;9.220;2022-08-04T14:42:08;99453.34;;;46.65;11.32
17260;BME280;8746;49.230;9.220;2022-08-04T14:44:54;99453.50;;;47.28;11.05
17260;BME280;8746;49.230;9.220;2022-08-04T14:47:44;99445.72;;;45.32;12.41
17260;BME280;8746;49.230;9.220;2022-08-04T14:50:11;99435.22;;;44.76;12.76
17260;BME280;8746;49.230;9.220;2022-08-04T14:52:37;99431.28;;;43.42;13.61
17260;BME280;8746;49.230;9.220;2022-08-04T14:55:20;99434.91;;;43.72;13.76
17260;BME280;8746;49.230;9.220;2022-08-04T14:57:48;99427.81;;;44.09;12.96
17260;BME280;8746;49.230;9.220;2022-08-04T15:00:31;99434.13;;;45.10;11.90
17260;BME280;8746;49.230;9.220;2022-08-04T15:03:05;99432.66;;;46.66;10.94
17260;BME280;8746;49.230;9.220;2022-08-04T15:05:33;99426.03;;;44.95;12.33
17260;BME280;8746;49.230;9.220;2022-08-04T15:07:59;99425.81;;;45.24;12.22
17260;BME280;8746;49.230;9.220;2022-08-04T15:10:25;99426.28;;;45.73;11.72
17260;BME280;8746;49.230;9.220;2022-08-04T15:12:51;99420.63;;;46.06;11.89
17260;BME280;8746;49.230;9.220;2022-08-04T15:15:17;99425.38;;;44.65;12.58
17260;BME280;8746;49.230;9.220;2022-08-04T15:17:43;99424.31;;;45.32;12.48
17260;BME280;8746;49.230;9.220;2022-08-04T15:20:09;99412.31;;;43.79;13.65
17260;BME280;8746;49.230;9.220;2022-08-04T15:22:36;99408.94;;;42.04;14.67
17260;BME280;8746;49.230;9.220;2022-08-04T15:25:02;99411.66;;;43.04;14.51
17260;BME280;8746;49.230;9.220;2022-08-04T15:27:29;99411.31;;;44.75;13.31
17260;BME280;8746;49.230;9.220;2022-08-04T15:30:02;99418.25;;;44.15;13.58
17260;BME280;8746;49.230;9.220;2022-08-04T15:32:31;99411.34;;;45.55;12.33
17260;BME280;8746;49.230;9.220;2022-08-04T15:35:26;99416.41;;;43.33;13.68
17260;BME280;8746;49.230;9.220;2022-08-04T15:40:50;99412.97;;;44.76;13.11
17260;BME280;8746;49.230;9.220;2022-08-04T15:46:12;99404.19;;;43.63;13.71
17260;BME280;8746;49.230;9.220;2022-08-04T15:48:38;99397.69;;;44.16;13.81
17260;BME280;8746;49.230;9.220;2022-08-04T15:51:06;99402.28;;;43.29;14.21
17260;BME280;8746;49.230;9.220;2022-08-04T15:58:51;99407.44;;;42.37;14.58
17260;BME280;8746;49.230;9.220;2022-08-04T16:01:17;99396.34;;;42.37;14.35
17260;BME280;8746;49.230;9.220;2022-08-04T16:03:45;99399.59;;;41.79;15.08
17260;BME280;8746;49.230;9.220;2022-08-04T16:19:03;99384.75;;;42.25;15.11
17260;BME280;8746;49.230;9.220;2022-08-04T16:21:32;99388.78;;;42.43;15.24
17260;BME280;8746;49.230;9.220;2022-08-04T16:34:39;99369.25;;;40.34;17.07
17260;BME280;8746;49.230;9.220;2022-08-04T16:37:07;99365.72;;;40.60;17.18
17260;BME280;8746;49.230;9.220;2022-08-04T16:39:34;99361.00;;;40.70;16.72
17260;BME280;8746;49.230;9.220;2022-08-04T16:41:59;99359.88;;;40.97;16.71
17260;BME280;8746;49.230;9.220;2022-08-04T16:44:36;99366.53;;;40.91;16.29
17260;BME280;8746;49.230;9.220;2022-08-04T16:47:07;99362.41;;;40.78;16.72
17260;BME280;8746;49.230;9.220;2022-08-04T16:49:33;99357.16;;;41.08;16.00
17260;BME280;8746;49.230;9.220;2022-08-04T16:52:04;99354.06;;;41.14;16.52
17260;BME280;8746;49.230;9.220;2022-08-04T16:54:31;99352.16;;;40.84;16.57
17260;BME280;8746;49.230;9.220;2022-08-04T16:57:00;99351.88;;;41.16;15.75
17260;BME280;8746;49.230;9.220;2022-08-04T16:59:31;99352.16;;;41.15;16.29
17260;BME280;8746;49.230;9.220;2022-08-04T17:01:57;99342.22;;;40.62;17.08
17260;BME280;8746;49.230;9.220;2022-08-04T17:04:33;99344.81;;;39.95;17.07
17260;BME280;8746;49.230;9.220;2022-08-04T17:07:00;99349.53;;;40.05;16.59
17260;BME280;8746;49.230;9.220;2022-08-04T17:09:26;99341.97;;;39.80;17.13
17260;BME280;8746;49.230;9.220;2022-08-04T17:11:52;99339.28;;;39.42;17.32
17260;BME280;8746;49.230;9.220;2022-08-04T17:14:26;99334.84;;;39.36;17.03
17260;BME280;8746;49.230;9.220;2022-08-04T17:16:55;99339.34;;;39.09;18.25
17260;BME280;8746;49.230;9.220;2022-08-04T17:19:21;99341.13;;;38.56;18.19
17260;BME280;8746;49.230;9.220;2022-08-04T17:21:47;99343.56;;;38.03;18.95
17260;BME280;8746;49.230;9.220;2022-08-04T17:24:13;99341.00;;;37.74;18.86
17260;BME280;8746;49.230;9.220;2022-08-04T17:26:39;99336.16;;;37.59;19.18
17260;BME280;8746;49.230;9.220;2022-08-04T17:29:05;99336.97;;;37.37;20.23
17260;BME280;8746;49.230;9.220;2022-08-04T17:31:32;99340.66;;;37.09;20.68